EGXS

RAF Swinderby Airport

Swinderby, United Kingdom
METAR EGXS 170650Z AUTO 19007KT 9999 // FEW220/// M02/M03 Q1021
Observed Flight Rules
Dec-17 @ 06:50 UTC (an hour ago) Visual Flight Rules
Wind Visibility Clouds
190° at 7 knots 10,000+ meters
  • Few at 22,000' AGL
Temperatures Readings
Current -2°C / 28°F
Dewpoint -3°C / 27°F
Humidity 93%
Altimeter 30.15" Hg
Pressure 1021 hPa
Elevation 3
METAR EGXS 170650Z AUTO 19007KT 9999 // FEW220/// M02/M03 Q1021
Observed Flight Rules
Dec-17 @ 06:50 UTC
(an hour ago)
VFR
Wind Visibility
190° at 7 knots 10,000+ meters
Clouds
  • Few at 22,000' AGL
Temperature Dewpoint
-2°C / 28°F -3°C / 27°F
Humidity Altimeter Pressure
93% 30.15" Hg 1021 hPa